Colmar Manor, Maryland
Current Conditions -  °F | °C
As of 4:30 PM on Friday 19 Dec 2014 (Local Time) from KCGS Reporting Station
Clear Clear  
Wind Chill: 32°   Ceiling: Unl
Heat Index: 39°   Visibility: 10mi
Dew Point: 23°   Wind: 10mph
Humidity: 52%   Direction: 320°NW
Pressure: 30.16"   Gusts: NA
Location:  38.9321°N, 76.9476°W
Report Text: KCGS 192130Z AUTO 32009KT 10SM CLR 04/M05 A3016 RMK AO1
Loading
Personal Weather Stations






























Interactive Weather Map New forecast layout! Learn more

10-Day Weather Forecast

Advertisements
Track Severe Weather on mobile